createdAt,value
2022-11-20T00:00:19.671Z,30.027
2022-11-20T00:05:18.691Z,30.026
2022-11-20T00:10:18.720Z,30.027
2022-11-20T00:15:15.741Z,30.028
2022-11-20T00:20:15.763Z,30.031
2022-11-20T00:25:18.751Z,30.029
2022-11-20T00:30:41.038Z,30.030
2022-11-20T00:35:18.738Z,30.032
2022-11-20T00:40:15.790Z,30.033
2022-11-20T00:45:15.763Z,30.031
2022-11-20T00:50:15.646Z,30.033
2022-11-20T00:55:18.747Z,30.034
2022-11-20T01:00:18.730Z,30.031
2022-11-20T01:05:16.750Z,30.031
2022-11-20T01:10:18.780Z,30.031
2022-11-20T01:15:18.712Z,30.033
2022-11-20T01:20:18.742Z,30.030
2022-11-20T01:25:15.740Z,30.028
2022-11-20T01:30:15.578Z,30.025
2022-11-20T01:35:19.735Z,30.025
2022-11-20T01:40:15.809Z,30.029
2022-11-20T01:45:18.762Z,30.029
2022-11-20T01:50:18.769Z,30.030
2022-11-20T01:55:15.793Z,30.027
2022-11-20T02:00:18.778Z,30.026
2022-11-20T02:05:18.731Z,30.026
2022-11-20T02:10:16.530Z,30.028
2022-11-20T02:15:15.791Z,30.028
2022-11-20T02:20:18.753Z,30.028
2022-11-20T02:25:18.751Z,30.025
2022-11-20T02:30:15.832Z,30.022
2022-11-20T02:35:18.789Z,30.020
2022-11-20T02:40:19.729Z,30.016
2022-11-20T02:45:15.819Z,30.016
2022-11-20T02:50:15.863Z,30.017
2022-11-20T02:55:18.790Z,30.017
2022-11-20T03:00:15.839Z,30.018
2022-11-20T03:05:18.772Z,30.019
2022-11-20T03:10:18.785Z,30.019
2022-11-20T03:15:16.721Z,30.019
2022-11-20T03:20:18.816Z,30.020
2022-11-20T03:25:18.843Z,30.023
2022-11-20T03:30:15.912Z,30.019
2022-11-20T03:35:18.803Z,30.017
2022-11-20T03:40:18.820Z,30.014
2022-11-20T03:45:19.744Z,30.012
2022-11-20T03:50:18.793Z,30.006
2022-11-20T03:55:18.812Z,30.006
2022-11-20T04:00:18.791Z,30.010
2022-11-20T04:05:15.827Z,30.009
2022-11-20T04:10:15.821Z,30.007
2022-11-20T04:15:18.848Z,30.004
2022-11-20T04:20:19.742Z,30.000
2022-11-20T04:25:18.851Z,29.999
2022-11-20T04:30:15.881Z,30.000
2022-11-20T04:35:15.879Z,29.997
2022-11-20T04:40:18.845Z,29.996
2022-11-20T04:45:18.838Z,29.994
2022-11-20T04:50:18.849Z,29.994
2022-11-20T04:55:16.703Z,29.992
2022-11-20T05:00:20.333Z,29.991
2022-11-20T05:05:20.116Z,29.985
2022-11-20T05:10:20.118Z,29.979
2022-11-20T05:15:17.161Z,29.977
2022-11-20T05:20:20.154Z,29.977
2022-11-20T05:25:20.986Z,29.973
2022-11-20T05:30:17.120Z,29.974
2022-11-20T05:35:20.119Z,29.970
2022-11-20T05:40:20.132Z,29.970
2022-11-20T05:45:17.164Z,29.968
2022-11-20T05:50:20.170Z,29.963
2022-11-20T05:55:20.126Z,29.961
2022-11-20T06:00:20.916Z,29.959
2022-11-20T06:05:17.129Z,29.956
2022-11-20T06:10:20.165Z,29.951
2022-11-20T06:15:20.125Z,29.950
2022-11-20T06:20:44.731Z,29.946
2022-11-20T06:25:20.129Z,29.946
2022-11-20T06:30:20.198Z,29.945
2022-11-20T06:35:18.030Z,29.941
2022-11-20T06:40:20.200Z,29.941
2022-11-20T06:45:20.153Z,29.936
2022-11-20T06:50:20.171Z,29.935
2022-11-20T06:55:20.133Z,29.930
2022-11-20T07:00:17.214Z,29.928
2022-11-20T07:05:21.070Z,29.927
2022-11-20T07:10:20.173Z,29.922
2022-11-20T07:15:17.162Z,29.920
2022-11-20T07:20:20.164Z,29.918
2022-11-20T07:25:17.241Z,29.915
2022-11-20T07:30:20.232Z,29.913
2022-11-20T07:35:20.199Z,29.910
2022-11-20T07:40:18.146Z,29.907
2022-11-20T07:45:20.196Z,29.905
2022-11-20T07:50:20.152Z,29.903
2022-11-20T07:55:20.223Z,29.903
2022-11-20T08:00:20.205Z,29.903
2022-11-20T08:05:17.237Z,29.903
2022-11-20T08:10:21.181Z,29.898
2022-11-20T08:15:20.182Z,29.894
2022-11-20T08:20:20.190Z,29.891
2022-11-20T08:25:20.162Z,29.891
2022-11-20T08:30:20.174Z,29.892
2022-11-20T08:35:20.182Z,29.891
2022-11-20T08:40:19.807Z,29.889
2022-11-20T08:45:21.166Z,29.887
2022-11-20T08:50:17.287Z,29.885
2022-11-20T08:55:20.203Z,29.882
2022-11-20T09:00:17.249Z,29.880
2022-11-20T09:05:20.216Z,29.877
2022-11-20T09:10:23.995Z,29.872
2022-11-20T09:15:20.272Z,29.863
2022-11-20T09:20:21.254Z,29.859
2022-11-20T09:25:20.190Z,29.856
2022-11-20T09:30:17.221Z,29.848
2022-11-20T09:35:20.279Z,29.853
2022-11-20T09:40:20.330Z,29.855
2022-11-20T09:45:20.237Z,29.858
2022-11-20T09:50:20.253Z,29.854
2022-11-20T09:55:21.013Z,29.850
2022-11-20T10:00:20.277Z,29.848
2022-11-20T10:05:20.287Z,29.845
2022-11-20T10:10:17.174Z,29.842
2022-11-20T10:15:20.238Z,29.843
2022-11-20T10:20:17.392Z,29.844
2022-11-20T10:25:20.247Z,29.842
2022-11-20T10:30:21.057Z,29.843
2022-11-20T10:35:20.257Z,29.839
2022-11-20T10:40:20.311Z,29.840
2022-11-20T10:45:20.311Z,29.835
2022-11-20T10:50:22.506Z,29.844
2022-11-20T10:55:17.317Z,29.852
2022-11-20T11:00:20.306Z,29.850
2022-11-20T11:05:18.299Z,29.849
2022-11-20T11:10:20.324Z,29.850
2022-11-20T11:15:20.315Z,29.851
2022-11-20T11:20:20.301Z,29.852
2022-11-20T11:25:20.284Z,29.850
2022-11-20T11:30:20.268Z,29.850
2022-11-20T11:35:17.334Z,29.851
2022-11-20T11:40:25.284Z,29.849
2022-11-20T11:45:17.183Z,29.845
2022-11-20T11:50:20.335Z,29.852
2022-11-20T11:55:20.294Z,29.855
2022-11-20T12:00:20.342Z,29.854
2022-11-20T12:05:17.325Z,29.855
2022-11-20T12:10:20.339Z,29.859
2022-11-20T12:15:21.245Z,29.858
2022-11-20T12:20:17.346Z,29.861
2022-11-20T12:25:20.305Z,29.863
2022-11-20T12:30:20.317Z,29.867
2022-11-20T12:35:20.312Z,29.869
2022-11-20T12:40:20.341Z,29.870
2022-11-20T12:45:17.383Z,29.875
2022-11-20T12:50:21.294Z,29.875
2022-11-20T12:55:20.356Z,29.878
2022-11-20T13:00:20.306Z,29.880
2022-11-20T13:05:17.341Z,29.883
2022-11-20T13:10:20.345Z,29.883
2022-11-20T13:15:20.346Z,29.884
2022-11-20T13:20:20.347Z,29.881
2022-11-20T13:25:18.336Z,29.886
2022-11-20T13:30:17.401Z,29.887
2022-11-20T13:35:18.379Z,29.891
2022-11-20T13:40:18.355Z,29.889
2022-11-20T13:45:18.358Z,29.889
2022-11-20T13:50:17.232Z,29.893
2022-11-20T13:55:19.341Z,29.893
2022-11-20T14:00:18.449Z,29.892
2022-11-20T14:05:15.390Z,29.892
2022-11-20T14:10:18.374Z,29.892
2022-11-20T14:15:18.353Z,29.894
2022-11-20T14:20:18.362Z,29.894
2022-11-20T14:25:15.388Z,29.896
2022-11-20T14:30:19.307Z,29.896
2022-11-20T14:35:18.386Z,29.899
2022-11-20T14:40:15.374Z,29.902
2022-11-20T14:45:18.351Z,29.904
2022-11-20T14:50:15.359Z,29.904
2022-11-20T14:55:18.414Z,29.908
2022-11-20T15:00:18.386Z,29.907
2022-11-20T15:05:16.364Z,29.911
2022-11-20T15:10:18.383Z,29.914
2022-11-20T15:15:18.380Z,29.910
2022-11-20T15:20:15.385Z,29.908
2022-11-20T15:25:18.355Z,29.906
2022-11-20T15:30:18.373Z,29.905
2022-11-20T15:35:19.162Z,29.908
2022-11-20T15:40:18.414Z,29.906
2022-11-20T15:45:18.405Z,29.903
2022-11-20T15:50:18.413Z,29.903
2022-11-20T15:55:18.403Z,29.899
2022-11-20T16:00:23.454Z,29.898
2022-11-20T16:05:18.376Z,29.902
2022-11-20T16:10:16.380Z,29.900
2022-11-20T16:15:18.399Z,29.897
2022-11-20T16:20:18.423Z,29.895
2022-11-20T16:25:18.427Z,29.896
2022-11-20T16:30:18.466Z,29.895
2022-11-20T16:35:18.413Z,29.895
2022-11-20T16:40:19.390Z,29.887
2022-11-20T16:45:24.751Z,29.891
2022-11-20T16:50:15.414Z,29.886
2022-11-20T16:55:15.265Z,29.890
2022-11-20T17:00:18.441Z,29.886
2022-11-20T17:05:18.430Z,29.889
2022-11-20T17:10:18.405Z,29.885
2022-11-20T17:15:19.636Z,29.884
2022-11-20T17:20:18.473Z,29.889
2022-11-20T17:25:15.440Z,29.888
2022-11-20T17:30:18.463Z,29.888
2022-11-20T17:35:15.292Z,29.896
2022-11-20T17:40:15.270Z,29.894
2022-11-20T17:45:18.473Z,29.897
2022-11-20T17:50:19.421Z,29.897
2022-11-20T17:55:18.425Z,29.895
2022-11-20T18:00:18.485Z,29.897
2022-11-20T18:05:18.430Z,29.894
2022-11-20T18:10:18.445Z,29.897
2022-11-20T18:15:18.451Z,29.896
2022-11-20T18:20:39.430Z,29.897
2022-11-20T18:25:19.283Z,29.900
2022-11-20T18:30:18.471Z,29.904
2022-11-20T18:35:15.521Z,29.904
2022-11-20T18:40:18.466Z,29.906
2022-11-20T18:45:18.493Z,29.910
2022-11-20T18:50:18.518Z,29.915
2022-11-20T18:55:15.526Z,29.913
2022-11-20T19:00:16.355Z,29.918
2022-11-20T19:05:18.528Z,29.915
2022-11-20T19:10:18.498Z,29.914
2022-11-20T19:15:18.477Z,29.918
2022-11-20T19:20:15.551Z,29.918
2022-11-20T19:25:18.497Z,29.924
2022-11-20T19:30:15.347Z,29.925
2022-11-20T19:35:19.463Z,29.924
2022-11-20T19:40:15.516Z,29.929
2022-11-20T19:45:18.493Z,29.927
2022-11-20T19:50:18.544Z,29.933
2022-11-20T19:55:18.488Z,29.936
2022-11-20T20:00:26.589Z,29.940
2022-11-20T20:05:18.503Z,29.945
2022-11-20T20:10:19.337Z,29.947
2022-11-20T20:15:18.481Z,29.950
2022-11-20T20:20:18.501Z,29.957
2022-11-20T20:25:18.515Z,29.952
2022-11-20T20:30:15.519Z,29.955
2022-11-20T20:35:18.505Z,29.960
2022-11-20T20:40:18.529Z,29.962
2022-11-20T20:45:19.539Z,29.967
2022-11-20T20:50:18.614Z,29.973
2022-11-20T20:55:18.565Z,29.975
2022-11-20T21:00:18.562Z,29.981
2022-11-20T21:05:18.537Z,29.983
2022-11-20T21:10:23.470Z,29.983
2022-11-20T21:15:15.615Z,29.989
2022-11-20T21:20:19.525Z,29.993
2022-11-20T21:25:15.562Z,29.994
2022-11-20T21:30:18.539Z,29.999
2022-11-20T21:35:18.599Z,30.001
2022-11-20T21:40:18.521Z,30.003
2022-11-20T21:45:18.562Z,30.008
2022-11-20T21:50:18.516Z,30.013
2022-11-20T21:55:19.546Z,30.014
2022-11-20T22:00:18.571Z,30.015
2022-11-20T22:05:18.613Z,30.019
2022-11-20T22:10:18.540Z,30.023
2022-11-20T22:15:38.928Z,30.033
2022-11-20T22:20:18.567Z,30.037
2022-11-20T22:25:15.601Z,30.041
2022-11-20T22:30:19.540Z,30.046
2022-11-20T22:35:18.570Z,30.048
2022-11-20T22:40:18.547Z,30.053
2022-11-20T22:45:18.560Z,30.055
2022-11-20T22:50:18.565Z,30.054
2022-11-20T22:55:18.595Z,30.057
2022-11-20T23:00:15.597Z,30.059
2022-11-20T23:05:19.570Z,30.063
2022-11-20T23:10:18.602Z,30.065
2022-11-20T23:15:15.640Z,30.067
2022-11-20T23:20:18.574Z,30.068
2022-11-20T23:25:18.608Z,30.070
2022-11-20T23:30:15.579Z,30.071
2022-11-20T23:35:18.570Z,30.075
2022-11-20T23:40:19.436Z,30.078
2022-11-20T23:45:18.580Z,30.082
2022-11-20T23:50:18.611Z,30.082
2022-11-20T23:55:18.627Z,30.086
